Wetterdaten: Woche 04.07.11 - 10.07.11 (KW27)
Datum Zeit Temp. Innen Temp. Aussen UV X Diff Temp. Feuchte Inne Feuchte Auss Sonnenschein Luftdruck Regen ab 0,1 Wind Sonnenschein T Regendauer Windben
04.07.2011 00:00 22,6 C 13,2 C 0,0 UV-I 0,0 C 52 % 80 % 0 % 1016,4 hPa 0,0 l/m 0,0 km/h (0 Bft) 0,00 h 0,13 h 0,0 km/h (0 Bft)
04.07.2011 01:00 22,3 C 12,2 C 0,0 UV-I 0,0 C 53 % 83 % 0 % 1016,0 hPa 0,0 l/m 0,0 km/h (0 Bft) 0,00 h 0,17 h 0,0 km/h (0 Bft)
04.07.2011 02:00 22,1 C 11,6 C 0,0 UV-I 0,0 C 53 % 85 % 0 % 1016,0 hPa 0,0 l/m 0,0 km/h (0 Bft) 0,00 h 0,07 h 0,0 km/h (0 Bft)
04.07.2011 03:00 21,9 C 11,8 C 0,0 UV-I 0,0 C 54 % 87 % 0 % 1016,1 hPa 0,0 l/m 0,2 km/h (0 Bft) 0,00 h 0,07 h 0,6 km/h (0 Bft)
04.07.2011 04:00 21,8 C 12,5 C 0,0 UV-I 0,0 C 54 % 86 % 0 % 1016,0 hPa 0,0 l/m 0,9 km/h (0 Bft) 0,00 h 0,07 h 1,7 km/h (1 Bft)
04.07.2011 05:00 21,8 C 13,0 C 0,0 UV-I 0,0 C 55 % 85 % 0 % 1015,9 hPa 0,0 l/m 2,2 km/h (1 Bft) 0,00 h 0,17 h 3,8 km/h (1 Bft)
04.07.2011 06:00 21,8 C 13,2 C 0,0 UV-I 0,0 C 55 % 84 % 0 % 1015,8 hPa 0,0 l/m 2,7 km/h (1 Bft) 0,00 h 0,03 h 5,0 km/h (1 Bft)
04.07.2011 07:00 21,7 C 13,2 C 0,2 UV-I 0,1 C 55 % 82 % 2 % 1016,0 hPa 0,0 l/m 5,7 km/h (1 Bft) 0,00 h 0,07 h 7,8 km/h (2 Bft)
04.07.2011 08:00 21,7 C 13,4 C 0,5 UV-I 0,3 C 55 % 81 % 8 % 1016,5 hPa 0,0 l/m 5,2 km/h (1 Bft) 0,00 h 0,00 h 7,6 km/h (2 Bft)
04.07.2011 09:00 21,7 C 13,6 C 0,8 UV-I 0,7 C 55 % 80 % 19 % 1016,5 hPa 0,0 l/m 5,4 km/h (1 Bft) 0,00 h 0,00 h 7,2 km/h (2 Bft)
04.07.2011 10:00 21,8 C 14,0 C 1,2 UV-I 1,4 C 55 % 79 % 41 % 1016,8 hPa 0,0 l/m 2,7 km/h (1 Bft) 0,00 h 0,00 h 4,4 km/h (1 Bft)
04.07.2011 11:00 22,0 C 14,6 C 1,7 UV-I 2,0 C 55 % 76 % 58 % 1017,2 hPa 0,0 l/m 3,7 km/h (1 Bft) 0,00 h 0,00 h 5,5 km/h (1 Bft)
04.07.2011 12:00 22,2 C 15,2 C 2,3 UV-I 2,6 C 54 % 74 % 74 % 1017,3 hPa 0,0 l/m 4,9 km/h (1 Bft) 0,10 h 0,00 h 6,2 km/h (2 Bft)
04.07.2011 13:00 22,4 C 16,2 C 3,4 UV-I 4,0 C 54 % 71 % 99 % 1017,3 hPa 0,0 l/m 4,9 km/h (1 Bft) 1,00 h 0,00 h 7,7 km/h (2 Bft)
04.07.2011 14:00 22,8 C 17,3 C 3,9 UV-I 4,8 C 53 % 68 % 100 % 1017,4 hPa 0,0 l/m 4,5 km/h (1 Bft) 1,00 h 0,00 h 7,1 km/h (2 Bft)
04.07.2011 15:00 23,5 C 18,6 C 5,3 UV-I 5,4 C 52 % 65 % 100 % 1017,3 hPa 0,0 l/m 4,6 km/h (1 Bft) 1,00 h 0,00 h 6,7 km/h (2 Bft)
04.07.2011 16:00 24,7 C 20,1 C 7,6 UV-I 6,8 C 50 % 59 % 100 % 1017,5 hPa 0,0 l/m 4,6 km/h (1 Bft) 1,00 h 0,00 h 6,9 km/h (2 Bft)
04.07.2011 17:00 25,5 C 20,8 C 6,4 UV-I 6,4 C 48 % 56 % 100 % 1017,1 hPa 0,0 l/m 3,7 km/h (1 Bft) 1,00 h 0,00 h 6,2 km/h (2 Bft)
04.07.2011 18:00 25,5 C 20,3 C 2,2 UV-I 4,1 C 48 % 55 % 86 % 1016,7 hPa 0,0 l/m 3,9 km/h (1 Bft) 0,67 h 0,00 h 7,3 km/h (2 Bft)
04.07.2011 19:00 25,0 C 20,1 C 1,3 UV-I 0,3 C 49 % 56 % 8 % 1016,1 hPa 0,0 l/m 3,7 km/h (1 Bft) 0,00 h 0,00 h 5,9 km/h (2 Bft)
04.07.2011 20:00 24,5 C 19,9 C 0,7 UV-I 0,0 C 50 % 56 % 0 % 1015,7 hPa 0,0 l/m 5,9 km/h (2 Bft) 0,00 h 0,00 h 7,6 km/h (2 Bft)
04.07.2011 21:00 24,1 C 18,7 C 0,1 UV-I 0,0 C 50 % 61 % 0 % 1015,7 hPa 0,0 l/m 2,3 km/h (1 Bft) 0,00 h 0,00 h 2,1 km/h (1 Bft)
04.07.2011 22:00 23,7 C 16,5 C 0,0 UV-I 0,0 C 51 % 69 % 0 % 1015,6 hPa 0,0 l/m 0,0 km/h (0 Bft) 0,00 h 0,10 h 0,0 km/h (0 Bft)
04.07.2011 23:00 23,2 C 14,7 C 0,0 UV-I 0,0 C 52 % 76 % 0 % 1015,9 hPa 0,0 l/m 0,0 km/h (0 Bft) 0,00 h 0,17 h 0,0 km/h (0 Bft)
05.07.2011 00:00 22,9 C 13,4 C 0,0 UV-I 0,0 C 53 % 81 % 0 % 1015,9 hPa 0,0 l/m 0,0 km/h (0 Bft) 0,00 h 0,30 h 0,0 km/h (0 Bft)
05.07.2011 01:00 22,6 C 12,4 C 0,0 UV-I 0,0 C 54 % 84 % 0 % 1015,9 hPa 0,0 l/m 0,0 km/h (0 Bft) 0,00 h 0,37 h 0,0 km/h (0 Bft)
05.07.2011 02:00 22,3 C 11,7 C 0,0 UV-I 0,0 C 54 % 86 % 0 % 1015,8 hPa 0,0 l/m 0,0 km/h (0 Bft) 0,00 h 0,47 h 0,0 km/h (0 Bft)
05.07.2011 03:00 22,1 C 11,1 C 0,0 UV-I 0,0 C 55 % 88 % 0 % 1015,5 hPa 0,0 l/m 0,0 km/h (0 Bft) 0,00 h 0,57 h 0,0 km/h (0 Bft)
05.07.2011 04:00 21,9 C 10,6 C 0,0 UV-I 0,0 C 55 % 89 % 0 % 1015,2 hPa 0,0 l/m 0,0 km/h (0 Bft) 0,00 h 0,57 h 0,0 km/h (0 Bft)
05.07.2011 05:00 21,7 C 10,1 C 0,0 UV-I 0,0 C 55 % 89 % 0 % 1015,1 hPa 0,0 l/m 0,0 km/h (0 Bft) 0,00 h 0,57 h 0,0 km/h (0 Bft)
05.07.2011 06:00 21,6 C 10,0 C 0,3 UV-I 0,0 C 55 % 90 % 0 % 1015,1 hPa 0,0 l/m 0,0 km/h (0 Bft) 0,00 h 0,53 h 0,0 km/h (0 Bft)
05.07.2011 07:00 21,5 C 11,6 C 1,0 UV-I 0,0 C 55 % 92 % 0 % 1014,9 hPa 0,0 l/m 0,1 km/h (0 Bft) 0,00 h 0,23 h 0,0 km/h (0 Bft)
05.07.2011 08:00 21,6 C 14,7 C 2,2 UV-I 4,2 C 56 % 89 % 69 % 1014,9 hPa 0,0 l/m 0,9 km/h (0 Bft) 0,63 h 0,03 h 1,2 km/h (1 Bft)
05.07.2011 09:00 21,8 C 17,8 C 7,2 UV-I 7,8 C 56 % 78 % 100 % 1014,8 hPa 0,0 l/m 1,2 km/h (1 Bft) 1,00 h 0,00 h 2,9 km/h (1 Bft)
05.07.2011 10:00 21,9 C 20,2 C 7,9 UV-I 7,7 C 56 % 65 % 100 % 1014,5 hPa 0,0 l/m 2,8 km/h (1 Bft) 1,00 h 0,00 h 5,5 km/h (1 Bft)
05.07.2011 11:00 22,1 C 21,8 C 6,2 UV-I 7,1 C 56 % 58 % 100 % 1014,1 hPa 0,0 l/m 3,9 km/h (1 Bft) 1,00 h 0,00 h 6,2 km/h (2 Bft)
05.07.2011 12:00 22,5 C 23,2 C 2,6 UV-I 6,8 C 56 % 51 % 100 % 1013,9 hPa 0,0 l/m 4,2 km/h (1 Bft) 1,00 h 0,00 h 6,4 km/h (2 Bft)
05.07.2011 13:00 23,1 C 24,4 C 3,8 UV-I 6,6 C 56 % 47 % 100 % 1013,7 hPa 0,0 l/m 4,9 km/h (1 Bft) 1,00 h 0,00 h 7,7 km/h (2 Bft)
05.07.2011 14:00 23,9 C 25,6 C 5,6 UV-I 6,6 C 55 % 44 % 100 % 1013,1 hPa 0,0 l/m 4,4 km/h (1 Bft) 1,00 h 0,00 h 7,4 km/h (2 Bft)
05.07.2011 15:00 25,0 C 26,1 C 6,1 UV-I 6,1 C 53 % 44 % 100 % 1012,9 hPa 0,0 l/m 5,9 km/h (2 Bft) 1,00 h 0,00 h 9,6 km/h (2 Bft)
05.07.2011 16:00 25,9 C 27,0 C 7,7 UV-I 6,2 C 51 % 42 % 100 % 1012,6 hPa 0,0 l/m 5,4 km/h (1 Bft) 1,00 h 0,00 h 7,7 km/h (2 Bft)
05.07.2011 17:00 26,5 C 27,6 C 6,3 UV-I 5,6 C 49 % 40 % 100 % 1012,0 hPa 0,0 l/m 4,7 km/h (1 Bft) 1,00 h 0,00 h 8,0 km/h (2 Bft)
05.07.2011 18:00 26,5 C 26,7 C 2,3 UV-I 3,5 C 49 % 42 % 78 % 1011,6 hPa 0,0 l/m 5,7 km/h (1 Bft) 0,53 h 0,00 h 7,1 km/h (2 Bft)
05.07.2011 19:00 25,9 C 25,8 C 1,4 UV-I 0,1 C 50 % 45 % 2 % 1010,7 hPa 0,0 l/m 5,8 km/h (2 Bft) 0,00 h 0,00 h 7,3 km/h (2 Bft)
05.07.2011 20:00 25,5 C 25,1 C 0,6 UV-I 0,0 C 52 % 47 % 0 % 1010,3 hPa 0,0 l/m 3,8 km/h (1 Bft) 0,00 h 0,00 h 4,8 km/h (1 Bft)
05.07.2011 21:00 25,2 C 23,6 C 0,1 UV-I 0,0 C 52 % 52 % 0 % 1010,0 hPa 0,0 l/m 3,6 km/h (1 Bft) 0,00 h 0,00 h 4,8 km/h (1 Bft)
05.07.2011 22:00 25,0 C 21,7 C 0,0 UV-I 0,0 C 53 % 58 % 0 % 1009,7 hPa 0,0 l/m 0,1 km/h (0 Bft) 0,00 h 0,00 h 0,5 km/h (0 Bft)
05.07.2011 23:00 24,7 C 20,5 C 0,0 UV-I 0,0 C 53 % 62 % 0 % 1009,4 hPa 0,0 l/m 0,1 km/h (0 Bft) 0,00 h 0,00 h 0,2 km/h (0 Bft)
06.07.2011 00:00 24,5 C 19,4 C 0,0 UV-I 0,0 C 54 % 68 % 0 % 1008,9 hPa 0,0 l/m 0,0 km/h (0 Bft) 0,00 h 0,03 h 0,0 km/h (0 Bft)
06.07.2011 01:00 24,2 C 18,5 C 0,0 UV-I 0,0 C 55 % 72 % 0 % 1008,3 hPa 0,0 l/m 0,0 km/h (0 Bft) 0,00 h 0,10 h 0,0 km/h (0 Bft)
06.07.2011 02:00 24,0 C 17,9 C 0,0 UV-I 0,0 C 55 % 75 % 0 % 1007,5 hPa 0,0 l/m 0,0 km/h (0 Bft) 0,00 h 0,23 h 0,0 km/h (0 Bft)
06.07.2011 03:00 23,8 C 17,5 C 0,0 UV-I 0,0 C 55 % 77 % 0 % 1006,8 hPa 0,0 l/m 0,0 km/h (0 Bft) 0,00 h 0,13 h 0,0 km/h (0 Bft)
06.07.2011 04:00 23,7 C 17,4 C 0,0 UV-I 0,0 C 56 % 77 % 0 % 1006,2 hPa 0,0 l/m 0,0 km/h (0 Bft) 0,00 h 0,10 h 0,0 km/h (0 Bft)
06.07.2011 05:00 23,6 C 17,7 C 0,0 UV-I 0,0 C 56 % 77 % 0 % 1006,2 hPa 0,0 l/m 0,0 km/h (0 Bft) 0,00 h 0,33 h 0,0 km/h (0 Bft)
06.07.2011 06:00 23,6 C 18,4 C 0,0 UV-I 0,0 C 56 % 77 % 0 % 1006,6 hPa 0,0 l/m 0,8 km/h (0 Bft) 0,00 h 0,17 h 2,0 km/h (1 Bft)
06.07.2011 07:00 23,6 C 18,7 C 0,5 UV-I 0,0 C 56 % 74 % 0 % 1007,0 hPa 0,0 l/m 2,6 km/h (1 Bft) 0,00 h 0,17 h 5,2 km/h (1 Bft)
06.07.2011 08:00 23,6 C 18,6 C 1,4 UV-I 0,9 C 56 % 74 % 26 % 1007,5 hPa 0,0 l/m 2,8 km/h (1 Bft) 0,00 h 0,00 h 5,6 km/h (1 Bft)
06.07.2011 09:00 23,7 C 19,5 C 2,9 UV-I 2,6 C 56 % 71 % 72 % 1007,9 hPa 0,0 l/m 6,9 km/h (2 Bft) 0,33 h 0,00 h 9,4 km/h (2 Bft)
06.07.2011 10:00 23,9 C 20,0 C 4,2 UV-I 3,8 C 55 % 71 % 77 % 1008,0 hPa 0,0 l/m 6,4 km/h (2 Bft) 0,57 h 0,00 h 8,7 km/h (2 Bft)
06.07.2011 11:00 24,0 C 21,8 C 5,9 UV-I 5,8 C 55 % 62 % 100 % 1007,9 hPa 0,0 l/m 7,6 km/h (2 Bft) 1,00 h 0,00 h 11,2 km/h (2 Bft)
06.07.2011 12:00 24,1 C 23,1 C 3,3 UV-I 5,0 C 54 % 53 % 100 % 1008,1 hPa 0,0 l/m 8,8 km/h (2 Bft) 1,00 h 0,00 h 13,0 km/h (3 Bft)
06.07.2011 13:00 24,3 C 23,4 C 3,4 UV-I 3,8 C 52 % 51 % 95 % 1008,1 hPa 0,0 l/m 6,2 km/h (2 Bft) 0,87 h 0,00 h 8,1 km/h (2 Bft)
06.07.2011 14:00 24,8 C 24,4 C 4,9 UV-I 4,8 C 51 % 47 % 99 % 1007,8 hPa 0,0 l/m 5,7 km/h (1 Bft) 1,00 h 0,00 h 8,6 km/h (2 Bft)
06.07.2011 15:00 25,1 C 23,3 C 2,6 UV-I 1,7 C 49 % 50 % 49 % 1008,2 hPa 0,0 l/m 8,5 km/h (2 Bft) 0,17 h 0,00 h 13,7 km/h (3 Bft)
06.07.2011 16:00 24,9 C 19,2 C 1,4 UV-I 0,4 C 50 % 68 % 10 % 1009,2 hPa 0,0 l/m 9,5 km/h (2 Bft) 0,00 h 0,23 h 12,2 km/h (2 Bft)
06.07.2011 17:00 24,9 C 20,3 C 4,2 UV-I 2,9 C 51 % 62 % 72 % 1009,2 hPa 0,0 l/m 7,2 km/h (2 Bft) 0,47 h 0,03 h 9,8 km/h (2 Bft)
06.07.2011 18:00 25,2 C 21,0 C 2,1 UV-I 2,0 C 50 % 59 % 57 % 1009,7 hPa 0,0 l/m 7,7 km/h (2 Bft) 0,13 h 0,00 h 11,2 km/h (2 Bft)
06.07.2011 19:00 25,0 C 20,3 C 1,4 UV-I 0,3 C 50 % 57 % 7 % 1009,9 hPa 0,0 l/m 4,5 km/h (1 Bft) 0,00 h 0,07 h 6,5 km/h (2 Bft)
06.07.2011 20:00 24,8 C 20,0 C 0,7 UV-I 0,1 C 50 % 57 % 2 % 1010,1 hPa 0,0 l/m 2,2 km/h (1 Bft) 0,00 h 0,07 h 3,3 km/h (1 Bft)
06.07.2011 21:00 24,5 C 18,7 C 0,1 UV-I 0,0 C 50 % 60 % 0 % 1010,2 hPa 0,0 l/m 0,0 km/h (0 Bft) 0,00 h 0,20 h 0,0 km/h (0 Bft)
06.07.2011 22:00 24,1 C 17,3 C 0,0 UV-I 0,0 C 51 % 67 % 0 % 1010,1 hPa 0,0 l/m 0,0 km/h (0 Bft) 0,00 h 0,37 h 0,0 km/h (0 Bft)
06.07.2011 23:00 23,8 C 15,8 C 0,0 UV-I 0,0 C 52 % 72 % 0 % 1010,3 hPa 0,0 l/m 0,0 km/h (0 Bft) 0,00 h 0,40 h 0,0 km/h (0 Bft)
07.07.2011 00:00 23,5 C 14,9 C 0,0 UV-I 0,0 C 53 % 75 % 0 % 1010,6 hPa 0,0 l/m 0,1 km/h (0 Bft) 0,00 h 0,47 h 0,4 km/h (0 Bft)
07.07.2011 01:00 23,2 C 14,3 C 0,0 UV-I 0,0 C 53 % 78 % 0 % 1010,4 hPa 0,0 l/m 0,3 km/h (0 Bft) 0,00 h 0,27 h 1,1 km/h (1 Bft)
07.07.2011 02:00 23,1 C 14,6 C 0,0 UV-I 0,0 C 54 % 80 % 0 % 1010,1 hPa 0,0 l/m 1,9 km/h (1 Bft) 0,00 h 0,30 h 3,5 km/h (1 Bft)
07.07.2011 03:00 23,0 C 15,1 C 0,0 UV-I 0,0 C 54 % 80 % 0 % 1009,8 hPa 0,0 l/m 4,3 km/h (1 Bft) 0,00 h 0,53 h 6,4 km/h (2 Bft)
07.07.2011 04:00 22,9 C 15,1 C 0,0 UV-I 0,0 C 55 % 81 % 0 % 1009,6 hPa 0,0 l/m 1,4 km/h (1 Bft) 0,00 h 0,63 h 3,5 km/h (1 Bft)
07.07.2011 05:00 22,8 C 15,2 C 0,0 UV-I 0,0 C 55 % 82 % 0 % 1009,1 hPa 0,0 l/m 3,3 km/h (1 Bft) 0,00 h 0,67 h 5,6 km/h (1 Bft)
07.07.2011 06:00 22,8 C 15,3 C 0,3 UV-I 0,0 C 55 % 82 % 1 % 1008,9 hPa 0,0 l/m 1,7 km/h (1 Bft) 0,00 h 0,57 h 3,4 km/h (1 Bft)
07.07.2011 07:00 22,9 C 16,6 C 0,8 UV-I 0,9 C 55 % 81 % 25 % 1009,2 hPa 0,0 l/m 3,7 km/h (1 Bft) 0,00 h 0,30 h 5,9 km/h (2 Bft)
07.07.2011 08:00 23,1 C 18,7 C 1,8 UV-I 3,2 C 55 % 70 % 76 % 1009,5 hPa 0,0 l/m 3,5 km/h (1 Bft) 0,50 h 0,13 h 5,6 km/h (1 Bft)
07.07.2011 09:00 23,2 C 19,6 C 4,4 UV-I 3,5 C 54 % 65 % 77 % 1009,4 hPa 0,0 l/m 2,5 km/h (1 Bft) 0,50 h 0,03 h 4,5 km/h (1 Bft)
07.07.2011 10:00 23,3 C 21,4 C 6,8 UV-I 6,2 C 53 % 58 % 100 % 1009,1 hPa 0,0 l/m 3,9 km/h (1 Bft) 1,00 h 0,00 h 6,7 km/h (2 Bft)
07.07.2011 11:00 23,5 C 21,8 C 2,8 UV-I 2,9 C 53 % 53 % 77 % 1008,9 hPa 0,0 l/m 4,6 km/h (1 Bft) 0,43 h 0,00 h 7,0 km/h (2 Bft)
07.07.2011 12:00 23,8 C 23,4 C 3,4 UV-I 6,3 C 51 % 45 % 100 % 1009,0 hPa 0,0 l/m 7,1 km/h (2 Bft) 1,00 h 0,00 h 10,9 km/h (2 Bft)
07.07.2011 13:00 24,1 C 24,4 C 4,1 UV-I 6,0 C 49 % 42 % 100 % 1008,9 hPa 0,0 l/m 6,2 km/h (2 Bft) 1,00 h 0,00 h 8,2 km/h (2 Bft)
07.07.2011 14:00 24,7 C 24,5 C 4,6 UV-I 4,7 C 48 % 41 % 99 % 1008,5 hPa 0,0 l/m 5,6 km/h (1 Bft) 1,00 h 0,00 h 8,3 km/h (2 Bft)
07.07.2011 15:00 25,3 C 24,4 C 4,2 UV-I 4,0 C 46 % 39 % 97 % 1008,5 hPa 0,0 l/m 5,7 km/h (1 Bft) 0,93 h 0,00 h 8,4 km/h (2 Bft)
07.07.2011 16:00 25,8 C 24,7 C 5,6 UV-I 4,3 C 44 % 36 % 97 % 1008,6 hPa 0,0 l/m 5,8 km/h (2 Bft) 0,97 h 0,00 h 7,3 km/h (2 Bft)
07.07.2011 17:00 26,3 C 25,4 C 5,9 UV-I 4,5 C 43 % 34 % 100 % 1008,2 hPa 0,0 l/m 4,4 km/h (1 Bft) 1,00 h 0,00 h 7,0 km/h (2 Bft)
07.07.2011 18:00 26,5 C 24,3 C 2,4 UV-I 2,9 C 42 % 37 % 78 % 1007,7 hPa 0,0 l/m 5,9 km/h (2 Bft) 0,47 h 0,00 h 7,7 km/h (2 Bft)
07.07.2011 19:00 26,1 C 23,7 C 1,5 UV-I 0,5 C 43 % 39 % 14 % 1007,1 hPa 0,0 l/m 3,0 km/h (1 Bft) 0,00 h 0,10 h 4,5 km/h (1 Bft)
07.07.2011 20:00 25,6 C 22,6 C 0,8 UV-I 0,0 C 44 % 41 % 0 % 1007,0 hPa 0,0 l/m 0,9 km/h (0 Bft) 0,00 h 0,17 h 1,7 km/h (1 Bft)
07.07.2011 21:00 25,3 C 21,4 C 0,2 UV-I 0,0 C 45 % 46 % 0 % 1006,8 hPa 0,0 l/m 0,0 km/h (0 Bft) 0,00 h 0,33 h 0,0 km/h (0 Bft)
07.07.2011 22:00 25,0 C 19,4 C 0,0 UV-I 0,0 C 46 % 54 % 0 % 1007,2 hPa 0,0 l/m 0,0 km/h (0 Bft) 0,00 h 0,47 h 0,0 km/h (0 Bft)
07.07.2011 23:00 24,6 C 17,7 C 0,0 UV-I 0,0 C 47 % 62 % 0 % 1007,4 hPa 0,0 l/m 0,0 km/h (0 Bft) 0,00 h 0,63 h 0,0 km/h (0 Bft)
08.07.2011 00:00 24,3 C 16,3 C 0,0 UV-I 0,0 C 48 % 70 % 0 % 1007,1 hPa 0,0 l/m 0,0 km/h (0 Bft) 0,00 h 0,80 h 0,2 km/h (0 Bft)
08.07.2011 01:00 24,0 C 15,9 C 0,0 UV-I 0,0 C 49 % 72 % 0 % 1007,3 hPa 0,0 l/m 0,2 km/h (0 Bft) 0,00 h 0,77 h 1,2 km/h (1 Bft)
08.07.2011 02:00 23,8 C 17,2 C 0,0 UV-I 0,0 C 49 % 62 % 0 % 1007,1 hPa 0,0 l/m 0,8 km/h (0 Bft) 0,00 h 0,73 h 2,1 km/h (1 Bft)
08.07.2011 03:00 23,7 C 16,8 C 0,0 UV-I 0,0 C 49 % 63 % 0 % 1007,1 hPa 0,0 l/m 0,0 km/h (0 Bft) 0,00 h 0,73 h 0,1 km/h (0 Bft)
08.07.2011 04:00 23,6 C 16,3 C 0,0 UV-I 0,0 C 49 % 66 % 0 % 1007,8 hPa 0,0 l/m 0,0 km/h (0 Bft) 0,00 h 0,77 h 0,2 km/h (0 Bft)
08.07.2011 05:00 23,5 C 16,5 C 0,0 UV-I 0,0 C 50 % 66 % 0 % 1008,3 hPa 0,0 l/m 0,9 km/h (0 Bft) 0,00 h 0,73 h 2,5 km/h (1 Bft)
08.07.2011 06:00 23,4 C 16,7 C 0,3 UV-I 0,0 C 50 % 67 % 0 % 1008,2 hPa 0,0 l/m 1,7 km/h (1 Bft) 0,00 h 0,67 h 3,9 km/h (1 Bft)
08.07.2011 07:00 23,4 C 16,9 C 0,9 UV-I 0,1 C 50 % 69 % 2 % 1008,9 hPa 0,0 l/m 2,6 km/h (1 Bft) 0,00 h 0,57 h 5,9 km/h (2 Bft)
08.07.2011 08:00 23,4 C 17,8 C 2,3 UV-I 2,2 C 50 % 68 % 58 % 1009,5 hPa 0,0 l/m 6,9 km/h (2 Bft) 0,30 h 0,53 h 8,9 km/h (2 Bft)
08.07.2011 09:00 23,6 C 19,2 C 4,2 UV-I 4,1 C 50 % 63 % 90 % 1009,9 hPa 0,0 l/m 4,9 km/h (1 Bft) 0,63 h 0,13 h 7,6 km/h (2 Bft)
08.07.2011 10:00 23,7 C 19,8 C 4,2 UV-I 3,2 C 49 % 59 % 79 % 1010,0 hPa 0,0 l/m 7,5 km/h (2 Bft) 0,60 h 0,17 h 11,7 km/h (2 Bft)
08.07.2011 11:00 23,9 C 21,0 C 5,1 UV-I 4,8 C 48 % 54 % 100 % 1010,2 hPa 0,0 l/m 8,8 km/h (2 Bft) 1,00 h 0,00 h 11,7 km/h (2 Bft)
08.07.2011 12:00 24,1 C 21,0 C 2,7 UV-I 3,3 C 47 % 51 % 86 % 1010,2 hPa 0,0 l/m 8,0 km/h (2 Bft) 0,70 h 0,00 h 10,9 km/h (2 Bft)
08.07.2011 13:00 24,2 C 22,0 C 4,1 UV-I 4,6 C 46 % 48 % 100 % 1010,7 hPa 0,0 l/m 8,6 km/h (2 Bft) 1,00 h 0,00 h 11,3 km/h (2 Bft)
08.07.2011 14:00 24,8 C 23,3 C 5,3 UV-I 4,6 C 44 % 42 % 100 % 1010,8 hPa 0,0 l/m 10,6 km/h (2 Bft) 1,00 h 0,00 h 11,8 km/h (2 Bft)
08.07.2011 15:00 25,6 C 23,7 C 5,1 UV-I 3,7 C 42 % 40 % 94 % 1011,0 hPa 0,0 l/m 9,1 km/h (2 Bft) 0,87 h 0,00 h 11,4 km/h (2 Bft)
08.07.2011 16:00 26,0 C 23,7 C 3,8 UV-I 2,8 C 41 % 39 % 77 % 1011,5 hPa 0,0 l/m 6,2 km/h (2 Bft) 0,43 h 0,00 h 8,8 km/h (2 Bft)
08.07.2011 17:00 26,0 C 23,3 C 3,6 UV-I 2,5 C 41 % 40 % 66 % 1011,2 hPa 0,0 l/m 7,2 km/h (2 Bft) 0,40 h 0,00 h 8,7 km/h (2 Bft)
08.07.2011 18:00 26,2 C 23,5 C 2,3 UV-I 2,9 C 40 % 39 % 70 % 1011,3 hPa 0,0 l/m 5,6 km/h (1 Bft) 0,33 h 0,00 h 8,0 km/h (2 Bft)
08.07.2011 19:00 25,8 C 23,0 C 1,4 UV-I 0,2 C 40 % 39 % 5 % 1011,2 hPa 0,0 l/m 5,7 km/h (1 Bft) 0,00 h 0,17 h 8,0 km/h (2 Bft)
08.07.2011 20:00 25,5 C 22,4 C 0,8 UV-I 0,0 C 41 % 41 % 0 % 1011,2 hPa 0,0 l/m 1,7 km/h (1 Bft) 0,00 h 0,17 h 3,2 km/h (1 Bft)
08.07.2011 21:00 25,2 C 20,9 C 0,2 UV-I 0,0 C 42 % 47 % 0 % 1011,3 hPa 0,0 l/m 0,0 km/h (0 Bft) 0,00 h 0,47 h 0,0 km/h (0 Bft)
08.07.2011 22:00 24,8 C 18,7 C 0,0 UV-I 0,0 C 44 % 55 % 0 % 1011,7 hPa 0,0 l/m 0,2 km/h (0 Bft) 0,00 h 0,63 h 0,4 km/h (0 Bft)
08.07.2011 23:00 24,4 C 17,7 C 0,0 UV-I 0,0 C 45 % 59 % 0 % 1011,9 hPa 0,0 l/m 0,4 km/h (0 Bft) 0,00 h 0,60 h 1,3 km/h (1 Bft)
09.07.2011 00:00 24,2 C 17,8 C 0,0 UV-I 0,0 C 46 % 59 % 0 % 1011,8 hPa 0,0 l/m 0,6 km/h (0 Bft) 0,00 h 0,80 h 2,5 km/h (1 Bft)
09.07.2011 01:00 23,9 C 17,0 C 0,0 UV-I 0,0 C 46 % 61 % 0 % 1011,9 hPa 0,0 l/m 0,4 km/h (0 Bft) 0,00 h 0,67 h 1,4 km/h (1 Bft)
09.07.2011 02:00 23,8 C 16,7 C 0,0 UV-I 0,0 C 47 % 63 % 0 % 1011,7 hPa 0,0 l/m 2,7 km/h (1 Bft) 0,00 h 0,90 h 4,9 km/h (1 Bft)
09.07.2011 03:00 23,6 C 16,5 C 0,0 UV-I 0,0 C 47 % 63 % 0 % 1011,5 hPa 0,0 l/m 5,0 km/h (1 Bft) 0,00 h 0,90 h 7,6 km/h (2 Bft)
09.07.2011 04:00 23,5 C 16,2 C 0,0 UV-I 0,0 C 47 % 65 % 0 % 1011,2 hPa 0,0 l/m 5,3 km/h (1 Bft) 0,00 h 0,90 h 8,1 km/h (2 Bft)
09.07.2011 05:00 23,4 C 16,1 C 0,0 UV-I 0,0 C 48 % 68 % 0 % 1011,0 hPa 0,0 l/m 4,1 km/h (1 Bft) 0,00 h 0,93 h 5,5 km/h (1 Bft)
09.07.2011 06:00 23,3 C 15,4 C 0,0 UV-I 0,0 C 49 % 76 % 0 % 1011,4 hPa 0,3 l/m 0,5 km/h (0 Bft) 0,00 h 1,00 h 2,0 km/h (1 Bft)
09.07.2011 07:00 23,2 C 14,9 C 0,1 UV-I 0,0 C 50 % 82 % 0 % 1011,8 hPa 0,8 l/m 2,3 km/h (1 Bft) 0,00 h 1,00 h 3,9 km/h (1 Bft)
09.07.2011 08:00 23,2 C 15,2 C 0,5 UV-I 0,0 C 51 % 86 % 0 % 1011,1 hPa 0,1 l/m 3,7 km/h (1 Bft) 0,00 h 1,00 h 6,9 km/h (2 Bft)
09.07.2011 09:00 23,3 C 16,2 C 0,9 UV-I 0,2 C 52 % 87 % 6 % 1010,7 hPa 0,2 l/m 4,3 km/h (1 Bft) 0,00 h 0,93 h 7,3 km/h (2 Bft)
09.07.2011 10:00 23,6 C 19,1 C 5,1 UV-I 4,6 C 53 % 83 % 85 % 1011,0 hPa 0,0 l/m 5,3 km/h (1 Bft) 0,73 h 0,13 h 8,9 km/h (2 Bft)
09.07.2011 11:00 23,9 C 22,9 C 5,8 UV-I 5,2 C 52 % 60 % 100 % 1011,4 hPa 0,0 l/m 9,4 km/h (2 Bft) 1,00 h 0,00 h 14,4 km/h (3 Bft)
09.07.2011 12:00 24,2 C 23,5 C 3,3 UV-I 3,8 C 50 % 53 % 89 % 1011,9 hPa 0,0 l/m 9,7 km/h (2 Bft) 0,67 h 0,00 h 12,2 km/h (2 Bft)
09.07.2011 13:00 24,4 C 22,4 C 3,5 UV-I 2,5 C 51 % 61 % 70 % 1013,3 hPa 0,0 l/m 8,0 km/h (2 Bft) 0,47 h 0,17 h 11,5 km/h (2 Bft)
09.07.2011 14:00 24,7 C 22,0 C 3,2 UV-I 2,6 C 51 % 65 % 75 % 1014,2 hPa 0,0 l/m 6,4 km/h (2 Bft) 0,47 h 0,07 h 8,9 km/h (2 Bft)
09.07.2011 15:00 24,8 C 20,1 C 1,8 UV-I 0,2 C 52 % 76 % 7 % 1015,0 hPa 0,6 l/m 5,6 km/h (1 Bft) 0,00 h 0,73 h 7,7 km/h (2 Bft)
09.07.2011 16:00 24,7 C 19,3 C 2,6 UV-I 1,3 C 54 % 82 % 38 % 1015,7 hPa 0,0 l/m 4,5 km/h (1 Bft) 0,00 h 0,43 h 8,5 km/h (2 Bft)
09.07.2011 17:00 24,8 C 20,0 C 2,5 UV-I 1,9 C 54 % 77 % 55 % 1016,0 hPa 0,0 l/m 4,8 km/h (1 Bft) 0,17 h 0,37 h 6,4 km/h (2 Bft)
09.07.2011 18:00 24,8 C 20,1 C 1,7 UV-I 1,4 C 54 % 74 % 41 % 1016,1 hPa 0,0 l/m 3,3 km/h (1 Bft) 0,00 h 0,30 h 6,6 km/h (2 Bft)
09.07.2011 19:00 24,7 C 20,3 C 1,4 UV-I 0,7 C 53 % 70 % 19 % 1016,2 hPa 0,0 l/m 4,4 km/h (1 Bft) 0,00 h 0,57 h 6,4 km/h (2 Bft)
09.07.2011 20:00 24,5 C 19,8 C 0,7 UV-I 0,0 C 53 % 67 % 0 % 1016,7 hPa 0,0 l/m 3,3 km/h (1 Bft) 0,00 h 0,67 h 6,1 km/h (2 Bft)
09.07.2011 21:00 24,3 C 19,5 C 0,1 UV-I 0,0 C 53 % 68 % 0 % 1016,8 hPa 0,0 l/m 0,8 km/h (0 Bft) 0,00 h 0,60 h 1,9 km/h (1 Bft)
09.07.2011 22:00 24,0 C 18,9 C 0,0 UV-I 0,0 C 53 % 71 % 0 % 1017,8 hPa 0,0 l/m 1,0 km/h (0 Bft) 0,00 h 0,73 h 1,7 km/h (1 Bft)
09.07.2011 23:00 23,8 C 18,0 C 0,0 UV-I 0,0 C 54 % 73 % 0 % 1017,5 hPa 0,0 l/m 0,4 km/h (0 Bft) 0,00 h 0,93 h 1,2 km/h (1 Bft)
10.07.2011 00:00 23,5 C 16,8 C 0,0 UV-I 0,0 C 54 % 77 % 0 % 1017,7 hPa 0,0 l/m 0,1 km/h (0 Bft) 0,00 h 1,00 h 0,1 km/h (0 Bft)
10.07.2011 01:00 23,3 C 16,1 C 0,0 UV-I 0,0 C 55 % 79 % 0 % 1018,2 hPa 0,0 l/m 0,1 km/h (0 Bft) 0,00 h 1,00 h 0,3 km/h (0 Bft)
10.07.2011 02:00 23,2 C 15,9 C 0,0 UV-I 0,0 C 55 % 81 % 0 % 1018,4 hPa 0,0 l/m 0,0 km/h (0 Bft) 0,00 h 1,00 h 0,2 km/h (0 Bft)
10.07.2011 03:00 23,1 C 15,9 C 0,0 UV-I 0,0 C 55 % 81 % 0 % 1018,3 hPa 0,0 l/m 0,0 km/h (0 Bft) 0,00 h 1,00 h 0,0 km/h (0 Bft)
10.07.2011 04:00 23,1 C 15,5 C 0,0 UV-I 0,0 C 55 % 82 % 0 % 1018,4 hPa 0,0 l/m 0,0 km/h (0 Bft) 0,00 h 1,00 h 0,0 km/h (0 Bft)
10.07.2011 05:00 23,0 C 14,6 C 0,0 UV-I 0,0 C 55 % 83 % 0 % 1018,6 hPa 0,0 l/m 0,0 km/h (0 Bft) 0,00 h 1,00 h 0,0 km/h (0 Bft)
10.07.2011 06:00 22,8 C 13,6 C 0,3 UV-I 0,0 C 56 % 86 % 0 % 1018,5 hPa 0,0 l/m 0,0 km/h (0 Bft) 0,00 h 1,00 h 0,0 km/h (0 Bft)
10.07.2011 07:00 22,7 C 14,3 C 0,9 UV-I 0,2 C 56 % 87 % 6 % 1018,6 hPa 0,0 l/m 0,4 km/h (0 Bft) 0,00 h 1,00 h 1,4 km/h (1 Bft)
10.07.2011 08:00 22,8 C 16,3 C 2,4 UV-I 4,7 C 56 % 83 % 77 % 1018,9 hPa 0,0 l/m 1,4 km/h (1 Bft) 0,63 h 0,73 h 3,1 km/h (1 Bft)
10.07.2011 09:00 23,0 C 19,2 C 4,9 UV-I 6,6 C 55 % 70 % 96 % 1018,8 hPa 0,0 l/m 0,9 km/h (0 Bft) 0,90 h 0,33 h 2,2 km/h (1 Bft)
10.07.2011 10:00 23,2 C 19,5 C 1,7 UV-I 1,7 C 54 % 65 % 48 % 1019,0 hPa 0,0 l/m 0,8 km/h (0 Bft) 0,00 h 0,50 h 1,3 km/h (1 Bft)
10.07.2011 11:00 23,5 C 19,9 C 3,0 UV-I 3,2 C 53 % 59 % 77 % 1019,1 hPa 0,0 l/m 1,2 km/h (1 Bft) 0,45 h 0,17 h 2,1 km/h (1 Bft)
10.07.2011 12:00 23,9 C 21,6 C 4,4 UV-I 6,6 C 52 % 54 % 100 % 1018,8 hPa 0,0 l/m 3,0 km/h (1 Bft) 1,00 h 0,00 h 7,0 km/h (2 Bft)
10.07.2011 13:00 24,3 C 22,9 C 4,3 UV-I 6,4 C 52 % 50 % 100 % 1018,5 hPa 0,0 l/m 3,9 km/h (1 Bft) 1,00 h 0,00 h 6,5 km/h (2 Bft)
10.07.2011 14:00 24,7 C 23,3 C 4,0 UV-I 3,9 C 51 % 47 % 97 % 1018,3 hPa 0,0 l/m 3,4 km/h (1 Bft) 0,78 h 0,00 h 5,5 km/h (1 Bft)
10.07.2011 15:00 25,0 C 22,9 C 3,4 UV-I 3,0 C 50 % 49 % 84 % 1018,4 hPa 0,0 l/m 6,9 km/h (2 Bft) 0,38 h 0,07 h 9,3 km/h (2 Bft)
10.07.2011 16:00 25,0 C 22,6 C 2,0 UV-I 1,6 C 50 % 49 % 45 % 1018,3 hPa 0,0 l/m 4,1 km/h (1 Bft) 0,00 h 0,10 h 7,0 km/h (2 Bft)
10.07.2011 17:00 25,0 C 22,9 C 3,4 UV-I 3,0 C 52 % 49 % 76 % 1018,1 hPa 0,0 l/m 5,2 km/h (1 Bft) 0,37 h 0,00 h 8,0 km/h (2 Bft)
10.07.2011 18:00 25,4 C 23,0 C 2,2 UV-I 2,9 C 52 % 47 % 80 % 1018,2 hPa 0,0 l/m 4,8 km/h (1 Bft) 0,57 h 0,07 h 7,6 km/h (2 Bft)
10.07.2011 19:00 25,3 C 22,4 C 1,1 UV-I 0,7 C 51 % 50 % 19 % 1018,1 hPa 0,0 l/m 3,0 km/h (1 Bft) 0,00 h 0,33 h 5,3 km/h (1 Bft)
10.07.2011 20:00 25,1 C 21,9 C 0,7 UV-I 0,0 C 52 % 51 % 0 % 1017,8 hPa 0,0 l/m 2,4 km/h (1 Bft) 0,00 h 0,50 h 3,8 km/h (1 Bft)
10.07.2011 21:00 24,8 C 20,9 C 0,0 UV-I 0,0 C 53 % 54 % 0 % 1018,0 hPa 0,0 l/m 0,1 km/h (0 Bft) 0,00 h 0,57 h 0,0 km/h (0 Bft)
10.07.2011 22:00 24,5 C 19,0 C 0,0 UV-I 0,0 C 53 % 62 % 0 % 1018,5 hPa 0,0 l/m 0,0 km/h (0 Bft) 0,00 h 0,90 h 0,0 km/h (0 Bft)
10.07.2011 23:00 24,1 C 17,1 C 0,0 UV-I 0,0 C 53 % 67 % 0 % 1018,7 hPa 0,0 l/m 0,0 km/h (0 Bft) 0,00 h 1,00 h 0,0 km/h (0 Bft)
Min-Datum _ 05.07.11 05.07.11 04.07.11 04.07.11 08.07.11 07.07.11 04.07.11 06.07.11 - 04.07.11 - - 04.07.11
_ Min-Zeit 06:54 06:12 00:00 00:00 18:06 17:26 00:00 04:44 - 00:00 - - 00:00
Minimum _ 21,5 C 9,7 C 0,0 UV-I 0,0 C 40 % 32 % 0 % 1006,0 hPa - 0,0 km/h (0 Bft) - - 0,0 km/h (0 Bft)
Max-Datum _ 05.07.11 05.07.11 07.07.11 10.07.11 05.07.11 05.07.11 04.07.11 10.07.11 09.07.11 06.07.11 04.07.11 04.07.11 09.07.11
_ Max-Zeit 18:06 17:20 17:24 09:32 07:56 07:20 13:06 11:04 07:08 15:44 12:54 00:06 11:38
Maximum _ 26,7 C 28,1 C 9,1 UV-I 9,3 C 56 % 92 % 100 % 1019,2 hPa 0,8 l/m 14,5 km/h
S-SO (3 Bft)
0,03 h 0,03 h 32,8 km/h
SO (5 Bft)
Durchschnitt _ 23,9 C 18,9 C 1,8 UV-I 1,8 C 51 % 65 % 36 % 1012,7 hPa #1,9 l/m 3,1 km/h (1 Bft) #47:07 h #49:40 h 4,8 km/h (1 Bft)
© 2012 W. Hausmann